createdAt,value
2022-08-30T00:01:58.429Z,100.00
2022-08-30T00:05:16.705Z,100.00
2022-08-30T00:08:32.846Z,100.00
2022-08-30T00:11:51.996Z,100.00
2022-08-30T00:15:07.791Z,100.00
2022-08-30T00:18:26.246Z,100.00
2022-08-30T00:21:42.729Z,100.00
2022-08-30T00:25:00.795Z,100.00
2022-08-30T00:28:17.731Z,100.00
2022-08-30T00:31:36.054Z,100.00
2022-08-30T00:34:52.153Z,100.00
2022-08-30T00:38:08.416Z,100.00
2022-08-30T00:41:24.631Z,100.00
2022-08-30T00:44:41.034Z,100.00
2022-08-30T00:47:57.714Z,100.00
2022-08-30T00:51:18.670Z,100.00
2022-08-30T00:54:35.905Z,100.00
2022-08-30T00:57:54.012Z,100.00
2022-08-30T01:01:12.684Z,100.00
2022-08-30T01:04:31.929Z,100.00
2022-08-30T01:07:49.550Z,100.00
2022-08-30T01:11:07.338Z,100.00
2022-08-30T01:14:25.891Z,100.00
2022-08-30T01:17:43.541Z,100.00
2022-08-30T01:21:08.125Z,100.00
2022-08-30T01:24:28.124Z,100.00
2022-08-30T01:27:49.272Z,100.00
2022-08-30T01:31:05.912Z,100.00
2022-08-30T01:34:23.084Z,100.00
2022-08-30T01:37:41.754Z,100.00
2022-08-30T01:41:00.451Z,100.00
2022-08-30T01:44:18.749Z,100.00
2022-08-30T01:47:35.098Z,100.00
2022-08-30T01:50:53.927Z,100.00
2022-08-30T01:54:11.602Z,100.00
2022-08-30T01:57:30.452Z,100.00
2022-08-30T02:00:46.519Z,100.00
2022-08-30T02:04:04.997Z,100.00
2022-08-30T02:07:22.090Z,100.00
2022-08-30T02:10:39.105Z,100.00
2022-08-30T02:13:56.351Z,100.00
2022-08-30T02:17:17.129Z,100.00
2022-08-30T02:20:33.655Z,100.00
2022-08-30T02:23:50.438Z,100.00
2022-08-30T02:27:08.394Z,100.00
2022-08-30T02:30:26.517Z,100.00
2022-08-30T02:33:43.208Z,100.00
2022-08-30T02:36:59.444Z,100.00
2022-08-30T02:40:19.053Z,100.00
2022-08-30T02:43:35.742Z,100.00
2022-08-30T02:46:52.049Z,100.00
2022-08-30T02:50:10.717Z,100.00
2022-08-30T02:53:27.809Z,100.00
2022-08-30T02:56:43.941Z,100.00
2022-08-30T03:00:00.280Z,100.00
2022-08-30T03:03:19.800Z,100.00
2022-08-30T03:06:36.262Z,100.00
2022-08-30T03:09:53.667Z,100.00
2022-08-30T03:13:09.952Z,100.00
2022-08-30T03:16:26.885Z,100.00
2022-08-30T03:19:44.213Z,100.00
2022-08-30T03:23:00.938Z,100.00
2022-08-30T03:26:19.349Z,100.00
2022-08-30T03:29:36.676Z,100.00
2022-08-30T03:32:53.046Z,100.00
2022-08-30T03:36:54.736Z,100.00
2022-08-30T03:40:12.580Z,100.00
2022-08-30T03:43:29.231Z,100.00
2022-08-30T03:46:46.223Z,100.00
2022-08-30T03:50:02.622Z,100.00
2022-08-30T03:53:19.773Z,100.00
2022-08-30T03:56:36.390Z,100.00
2022-08-30T03:59:52.531Z,100.00
2022-08-30T04:03:08.766Z,100.00
2022-08-30T04:06:24.999Z,100.00
2022-08-30T04:09:42.775Z,100.00
2022-08-30T04:12:59.827Z,100.00
2022-08-30T04:16:16.525Z,100.00
2022-08-30T04:19:33.061Z,100.00
2022-08-30T04:22:49.117Z,100.00
2022-08-30T04:26:05.760Z,100.00
2022-08-30T04:29:22.274Z,100.00
2022-08-30T04:32:39.190Z,100.00
2022-08-30T04:35:57.683Z,100.00
2022-08-30T04:39:14.717Z,100.00
2022-08-30T04:42:32.496Z,100.00
2022-08-30T04:45:51.435Z,100.00
2022-08-30T04:49:07.947Z,100.00
2022-08-30T04:52:24.531Z,100.00
2022-08-30T04:55:40.910Z,100.00
2022-08-30T04:58:59.481Z,100.00
2022-08-30T05:02:15.949Z,100.00
2022-08-30T05:05:47.537Z,100.00
2022-08-30T05:09:04.475Z,100.00
2022-08-30T05:12:20.871Z,100.00
2022-08-30T05:15:36.895Z,100.00
2022-08-30T05:18:54.763Z,100.00
2022-08-30T05:22:13.888Z,100.00
2022-08-30T05:25:34.076Z,100.00
2022-08-30T05:28:52.221Z,100.00
2022-08-30T05:32:08.637Z,100.00
2022-08-30T05:35:27.540Z,100.00
2022-08-30T05:38:43.842Z,100.00
2022-08-30T05:42:02.839Z,100.00
2022-08-30T05:45:21.729Z,100.00
2022-08-30T05:48:38.318Z,100.00
2022-08-30T05:51:55.599Z,100.00
2022-08-30T05:55:13.934Z,100.00
2022-08-30T05:58:30.008Z,100.00
2022-08-30T06:01:48.689Z,100.00
2022-08-30T06:05:06.030Z,100.00
2022-08-30T06:08:22.168Z,100.00
2022-08-30T06:11:38.720Z,100.00
2022-08-30T06:14:55.872Z,100.00
2022-08-30T06:18:12.328Z,100.00
2022-08-30T06:21:32.594Z,100.00
2022-08-30T06:25:03.701Z,100.00
2022-08-30T06:28:06.733Z,100.00
2022-08-30T06:31:25.560Z,100.00
2022-08-30T06:34:42.034Z,100.00
2022-08-30T06:37:58.267Z,100.00
2022-08-30T06:41:19.764Z,100.00
2022-08-30T06:44:35.897Z,100.00
2022-08-30T06:47:52.735Z,100.00
2022-08-30T06:51:09.276Z,100.00
2022-08-30T06:54:25.410Z,98.03
2022-08-30T06:57:42.247Z,100.00
2022-08-30T07:01:01.371Z,100.00
2022-08-30T07:04:17.663Z,100.00
2022-08-30T07:07:33.793Z,100.00
2022-08-30T07:10:50.600Z,100.00
2022-08-30T07:14:07.119Z,100.00
2022-08-30T07:17:37.147Z,98.19
2022-08-30T07:20:53.205Z,100.00
2022-08-30T07:24:11.023Z,100.00
2022-08-30T07:27:27.178Z,96.57
2022-08-30T07:30:44.614Z,95.45
2022-08-30T07:34:01.127Z,97.43
2022-08-30T07:37:18.103Z,97.09
2022-08-30T07:40:35.246Z,97.11
2022-08-30T07:43:51.489Z,99.31
2022-08-30T07:47:07.720Z,100.00
2022-08-30T07:50:23.997Z,98.92
2022-08-30T07:53:40.275Z,100.00
2022-08-30T07:56:56.540Z,98.84
2022-08-30T08:00:16.507Z,97.67
2022-08-30T08:03:32.548Z,99.42
2022-08-30T08:06:49.903Z,99.88
2022-08-30T08:10:05.982Z,98.09
2022-08-30T08:13:24.372Z,93.01
2022-08-30T08:16:45.845Z,95.92
2022-08-30T08:20:02.002Z,95.77
2022-08-30T08:23:18.274Z,92.45
2022-08-30T08:26:34.820Z,89.09
2022-08-30T08:30:29.463Z,88.41
2022-08-30T08:57:29.964Z,79.95
2022-08-30T09:01:45.246Z,84.74
2022-08-30T09:26:21.663Z,78.32
2022-08-30T09:30:07.047Z,78.77
2022-08-30T09:33:29.543Z,75.05
2022-08-30T09:36:52.260Z,75.18
2022-08-30T09:40:11.657Z,71.75
2022-08-30T09:44:15.512Z,74.59
2022-08-30T09:47:48.589Z,75.36
2022-08-30T09:55:56.334Z,80.22
2022-08-30T09:59:28.138Z,83.32
2022-08-30T10:03:08.992Z,83.16
2022-08-30T10:06:36.102Z,89.54
2022-08-30T10:09:58.143Z,86.22
2022-08-30T10:22:05.406Z,79.66
2022-08-30T10:26:12.191Z,75.77
2022-08-30T10:34:56.057Z,79.99
2022-08-30T10:38:22.622Z,76.46
2022-08-30T10:58:15.513Z,69.29
2022-08-30T11:01:51.193Z,72.04
2022-08-30T11:11:15.378Z,72.57
2022-08-30T11:17:41.181Z,69.33
2022-08-30T11:24:14.186Z,77.33
2022-08-30T11:27:59.381Z,83.43
2022-08-30T11:37:55.650Z,80.61
2022-08-30T11:47:47.455Z,89.65
2022-08-30T11:51:29.235Z,74.91
2022-08-30T11:55:27.362Z,82.70
2022-08-30T12:16:00.234Z,80.96
2022-08-30T12:19:26.589Z,80.35
2022-08-30T12:23:27.831Z,77.36
2022-08-30T12:26:55.874Z,75.95
2022-08-30T12:30:17.464Z,75.31
2022-08-30T12:33:42.944Z,83.13
2022-08-30T13:24:58.371Z,90.61
2022-08-30T13:28:16.550Z,88.41
2022-08-30T13:31:44.315Z,88.88
2022-08-30T13:57:13.378Z,95.25
2022-08-30T14:00:41.841Z,85.13
2022-08-30T14:04:15.782Z,78.79
2022-08-30T14:07:25.301Z,77.08
2022-08-30T14:10:47.404Z,75.94
2022-08-30T14:14:15.035Z,75.57
2022-08-30T14:17:31.227Z,74.29
2022-08-30T14:20:53.632Z,77.94
2022-08-30T14:24:11.007Z,80.77
2022-08-30T14:27:27.753Z,88.97
2022-08-30T14:30:47.128Z,95.21
2022-08-30T14:34:51.888Z,93.96
2022-08-30T14:38:13.329Z,90.08
2022-08-30T14:41:34.625Z,83.42
2022-08-30T14:44:56.921Z,89.75
2022-08-30T14:48:14.823Z,85.28
2022-08-30T14:51:38.147Z,79.32
2022-08-30T14:55:00.263Z,78.85
2022-08-30T14:59:21.360Z,76.96
2022-08-30T15:02:41.666Z,74.97
2022-08-30T15:06:01.890Z,74.57
2022-08-30T15:09:23.081Z,74.37
2022-08-30T15:12:47.421Z,74.87
2022-08-30T15:16:08.940Z,76.49
2022-08-30T15:19:26.888Z,74.95
2022-08-30T15:23:11.537Z,74.83
2022-08-30T15:27:28.843Z,76.01
2022-08-30T15:31:09.492Z,73.25
2022-08-30T15:34:31.293Z,74.14
2022-08-30T15:37:48.431Z,74.02
2022-08-30T15:41:16.392Z,75.45
2022-08-30T15:44:39.830Z,74.75
2022-08-30T15:47:57.362Z,75.98
2022-08-30T15:51:14.484Z,83.96
2022-08-30T15:54:33.041Z,90.39
2022-08-30T15:57:49.482Z,97.40
2022-08-30T16:01:06.449Z,98.04
2022-08-30T16:04:23.285Z,100.00
2022-08-30T16:07:50.917Z,100.00
2022-08-30T16:11:20.434Z,97.62
2022-08-30T16:14:36.825Z,100.00
2022-08-30T16:17:54.236Z,90.00
2022-08-30T16:21:17.900Z,94.47
2022-08-30T16:24:34.278Z,84.87
2022-08-30T16:27:50.926Z,89.04
2022-08-30T16:31:08.267Z,88.69
2022-08-30T16:34:27.769Z,93.41
2022-08-30T16:37:43.930Z,90.43
2022-08-30T16:41:00.943Z,88.45
2022-08-30T16:44:18.485Z,85.34
2022-08-30T16:47:35.100Z,86.83
2022-08-30T16:50:53.454Z,90.84
2022-08-30T16:54:14.207Z,96.55
2022-08-30T16:57:31.470Z,94.02
2022-08-30T17:00:48.480Z,96.04
2022-08-30T17:04:05.353Z,98.59
2022-08-30T17:07:22.606Z,100.00
2022-08-30T17:10:39.830Z,100.00
2022-08-30T17:13:59.068Z,99.69
2022-08-30T17:17:16.705Z,100.00
2022-08-30T17:20:35.775Z,100.00
2022-08-30T17:23:54.227Z,100.00
2022-08-30T17:27:13.608Z,100.00
2022-08-30T17:30:30.581Z,100.00
2022-08-30T17:33:47.177Z,100.00
2022-08-30T17:37:03.883Z,100.00
2022-08-30T17:40:21.593Z,100.00
2022-08-30T17:43:38.054Z,100.00
2022-08-30T17:46:54.609Z,100.00
2022-08-30T17:50:12.790Z,100.00
2022-08-30T17:53:29.102Z,100.00
2022-08-30T17:56:46.123Z,100.00
2022-08-30T18:00:03.420Z,100.00
2022-08-30T18:03:20.519Z,100.00
2022-08-30T18:06:38.401Z,100.00
2022-08-30T18:09:56.401Z,100.00
2022-08-30T18:13:13.351Z,100.00
2022-08-30T18:16:31.437Z,100.00
2022-08-30T18:19:48.544Z,100.00
2022-08-30T18:23:05.415Z,100.00
2022-08-30T18:26:24.983Z,100.00
2022-08-30T18:29:41.973Z,100.00
2022-08-30T18:32:59.127Z,100.00
2022-08-30T18:36:16.614Z,100.00
2022-08-30T18:39:36.420Z,100.00
2022-08-30T18:42:52.722Z,100.00
2022-08-30T18:46:13.756Z,100.00
2022-08-30T18:49:34.291Z,100.00
2022-08-30T18:52:50.571Z,100.00
2022-08-30T18:56:08.181Z,100.00
2022-08-30T18:59:35.240Z,100.00
2022-08-30T19:02:43.691Z,100.00
2022-08-30T19:06:00.388Z,100.00
2022-08-30T19:09:17.073Z,100.00
2022-08-30T19:12:35.070Z,100.00
2022-08-30T19:15:51.478Z,100.00
2022-08-30T19:19:08.165Z,100.00
2022-08-30T19:22:32.864Z,100.00
2022-08-30T19:25:46.893Z,100.00
2022-08-30T19:29:05.817Z,100.00
2022-08-30T19:32:23.423Z,100.00
2022-08-30T19:35:40.248Z,100.00
2022-08-30T19:38:56.746Z,100.00
2022-08-30T19:42:13.615Z,100.00
2022-08-30T19:45:32.043Z,100.00
2022-08-30T19:48:50.525Z,100.00
2022-08-30T19:52:09.538Z,100.00
2022-08-30T19:55:31.594Z,100.00
2022-08-30T19:58:47.879Z,100.00
2022-08-30T20:02:04.085Z,100.00
2022-08-30T20:05:22.486Z,100.00
2022-08-30T20:08:40.252Z,100.00
2022-08-30T20:11:58.824Z,100.00
2022-08-30T20:15:18.842Z,100.00
2022-08-30T20:18:35.740Z,100.00
2022-08-30T20:21:53.462Z,100.00
2022-08-30T20:25:10.899Z,100.00
2022-08-30T20:28:30.385Z,100.00
2022-08-30T20:31:50.578Z,100.00
2022-08-30T20:35:07.070Z,100.00
2022-08-30T20:38:26.064Z,100.00
2022-08-30T20:42:10.617Z,100.00
2022-08-30T20:45:31.041Z,100.00
2022-08-30T20:48:47.206Z,100.00
2022-08-30T20:52:04.973Z,100.00
2022-08-30T20:55:23.007Z,100.00
2022-08-30T20:58:39.401Z,100.00
2022-08-30T21:01:58.632Z,100.00
2022-08-30T21:05:17.143Z,100.00
2022-08-30T21:08:33.973Z,100.00
2022-08-30T21:11:50.950Z,100.00
2022-08-30T21:15:34.075Z,100.00
2022-08-30T21:18:27.752Z,100.00
2022-08-30T21:21:44.380Z,100.00
2022-08-30T21:25:03.185Z,100.00
2022-08-30T21:28:19.871Z,100.00
2022-08-30T21:31:38.584Z,100.00
2022-08-30T21:35:08.777Z,100.00
2022-08-30T21:38:25.316Z,100.00
2022-08-30T21:41:43.940Z,100.00
2022-08-30T21:45:00.126Z,100.00
2022-08-30T21:48:17.744Z,100.00
2022-08-30T21:51:35.808Z,100.00
2022-08-30T21:54:51.958Z,100.00
2022-08-30T21:58:10.784Z,100.00
2022-08-30T22:01:31.724Z,100.00
2022-08-30T22:04:49.690Z,100.00
2022-08-30T22:08:05.810Z,100.00
2022-08-30T22:11:26.030Z,100.00
2022-08-30T22:14:42.451Z,100.00
2022-08-30T22:17:58.711Z,100.00
2022-08-30T22:21:18.760Z,100.00
2022-08-30T22:24:35.042Z,100.00
2022-08-30T22:27:51.319Z,100.00
2022-08-30T22:31:10.675Z,100.00
2022-08-30T22:34:29.378Z,100.00
2022-08-30T22:37:47.756Z,100.00
2022-08-30T22:41:04.238Z,100.00
2022-08-30T22:44:20.768Z,100.00
2022-08-30T22:47:38.903Z,100.00
2022-08-30T22:50:55.572Z,100.00
2022-08-30T22:54:13.507Z,100.00
2022-08-30T22:57:29.828Z,100.00
2022-08-30T23:00:54.775Z,100.00
2022-08-30T23:04:11.113Z,100.00
2022-08-30T23:07:27.321Z,100.00
2022-08-30T23:10:49.498Z,100.00
2022-08-30T23:14:05.947Z,100.00
2022-08-30T23:17:22.013Z,100.00
2022-08-30T23:20:38.326Z,100.00
2022-08-30T23:24:08.862Z,100.00
2022-08-30T23:27:39.570Z,100.00
2022-08-30T23:31:09.730Z,100.00
2022-08-30T23:34:40.376Z,100.00
2022-08-30T23:38:10.355Z,100.00
2022-08-30T23:41:40.773Z,100.00
2022-08-30T23:45:11.870Z,100.00
2022-08-30T23:48:42.261Z,100.00
2022-08-30T23:52:14.097Z,100.00
2022-08-30T23:55:44.139Z,100.00
2022-08-30T23:59:14.150Z,100.00
